The Hangar Logo

METARs in Plain English
Latest METAR information for EGVN - BRIZE NORTON

EGVN 191850Z 00000KT CAVOK 04/01 Q1023 BLU TEMPO BKN020 WHT

In plain english is....

This is a METAR report for EGVN - BRIZE NORTON .
The report was made 41 minutes ago, at 18:50 UTC.
The wind was calm.
The visibility was greater than 6.2 miles (greater than 10 kilometres).
There were no clouds below 5,000 feet (1,524 metres).
The temperature was 4°C (39°F), a dew point of 1°C (34°F) and a relative humidity of 80.8%.
The altimeter setting (airfield QNH) was 1,023 hPa (30.21 inHg).
Other remarks BLU TEMPO BKN020 WHT.

UK Mainland

Ireland

Channel Islands (& Isle of Man)

France

Other



Enter
Tel: 07092 887559 - Fax: 07092 183262

Content copyright © 1999-2016 TheHangar.co.uk. All rights reserved.
Please send your questions, comments, or bug reports to the Webmaster.